sensor_id;sensor_type;location;lat;lon;timestamp;temperature;humidity
13123;DHT22;6627;50.920;12.050;2023-11-22T00:02:20;2.10;99.90
13123;DHT22;6627;50.920;12.050;2023-11-22T00:04:50;2.00;99.90
13123;DHT22;6627;50.920;12.050;2023-11-22T00:09:46;2.10;99.90
13123;DHT22;6627;50.920;12.050;2023-11-22T00:12:14;2.00;99.90
13123;DHT22;6627;50.920;12.050;2023-11-22T00:14:43;2.00;99.90
13123;DHT22;6627;50.920;12.050;2023-11-22T00:17:10;2.00;99.90
13123;DHT22;6627;50.920;12.050;2023-11-22T00:19:37;2.00;99.90
13123;DHT22;6627;50.920;12.050;2023-11-22T00:22:07;2.00;99.90
13123;DHT22;6627;50.920;12.050;2023-11-22T00:24:39;2.00;99.90
13123;DHT22;6627;50.920;12.050;2023-11-22T00:27:06;2.00;99.90
13123;DHT22;6627;50.920;12.050;2023-11-22T00:29:34;2.00;99.90
13123;DHT22;6627;50.920;12.050;2023-11-22T00:32:02;2.00;99.90
13123;DHT22;6627;50.920;12.050;2023-11-22T00:34:34;2.10;99.90
13123;DHT22;6627;50.920;12.050;2023-11-22T00:37:02;2.10;99.90
13123;DHT22;6627;50.920;12.050;2023-11-22T00:39:31;2.10;99.90
13123;DHT22;6627;50.920;12.050;2023-11-22T00:41:58;2.10;99.90
13123;DHT22;6627;50.920;12.050;2023-11-22T00:44:25;1.90;99.90
13123;DHT22;6627;50.920;12.050;2023-11-22T00:46:52;2.00;99.90
13123;DHT22;6627;50.920;12.050;2023-11-22T00:49:20;2.00;99.90
13123;DHT22;6627;50.920;12.050;2023-11-22T00:51:48;2.10;99.90
13123;DHT22;6627;50.920;12.050;2023-11-22T00:54:16;2.10;99.90
13123;DHT22;6627;50.920;12.050;2023-11-22T00:56:46;2.10;99.90
13123;DHT22;6627;50.920;12.050;2023-11-22T00:59:13;2.10;99.90
13123;DHT22;6627;50.920;12.050;2023-11-22T01:01:41;1.90;99.90
13123;DHT22;6627;50.920;12.050;2023-11-22T01:04:08;2.00;99.90
13123;DHT22;6627;50.920;12.050;2023-11-22T01:06:36;2.00;99.90
13123;DHT22;6627;50.920;12.050;2023-11-22T01:09:04;2.00;99.90
13123;DHT22;6627;50.920;12.050;2023-11-22T01:14:00;1.90;99.90
13123;DHT22;6627;50.920;12.050;2023-11-22T01:16:28;1.90;99.90
13123;DHT22;6627;50.920;12.050;2023-11-22T01:18:55;2.00;99.90
13123;DHT22;6627;50.920;12.050;2023-11-22T01:21:22;2.00;99.90
13123;DHT22;6627;50.920;12.050;2023-11-22T01:23:50;1.90;99.90
13123;DHT22;6627;50.920;12.050;2023-11-22T01:26:19;1.90;99.90
13123;DHT22;6627;50.920;12.050;2023-11-22T01:31:15;1.90;99.90
13123;DHT22;6627;50.920;12.050;2023-11-22T01:33:46;1.90;99.90
13123;DHT22;6627;50.920;12.050;2023-11-22T01:36:14;1.90;99.90
13123;DHT22;6627;50.920;12.050;2023-11-22T01:41:11;1.80;99.90
13123;DHT22;6627;50.920;12.050;2023-11-22T01:43:40;1.80;99.90
13123;DHT22;6627;50.920;12.050;2023-11-22T01:46:09;1.70;99.90
13123;DHT22;6627;50.920;12.050;2023-11-22T01:48:43;1.80;99.90
13123;DHT22;6627;50.920;12.050;2023-11-22T01:53:38;1.80;99.90
13123;DHT22;6627;50.920;12.050;2023-11-22T01:56:05;1.80;99.90
13123;DHT22;6627;50.920;12.050;2023-11-22T01:58:33;1.80;99.90
13123;DHT22;6627;50.920;12.050;2023-11-22T02:01:01;1.70;99.90
13123;DHT22;6627;50.920;12.050;2023-11-22T02:03:29;1.70;99.90
13123;DHT22;6627;50.920;12.050;2023-11-22T02:05:58;1.70;99.90
13123;DHT22;6627;50.920;12.050;2023-11-22T02:08:26;1.70;99.90
13123;DHT22;6627;50.920;12.050;2023-11-22T02:10:57;1.70;99.90
13123;DHT22;6627;50.920;12.050;2023-11-22T02:13:28;1.70;99.90
13123;DHT22;6627;50.920;12.050;2023-11-22T02:18:35;1.60;99.90
13123;DHT22;6627;50.920;12.050;2023-11-22T02:21:06;1.70;99.90
13123;DHT22;6627;50.920;12.050;2023-11-22T02:23:35;1.60;99.90
13123;DHT22;6627;50.920;12.050;2023-11-22T02:26:03;1.60;99.90
13123;DHT22;6627;50.920;12.050;2023-11-22T02:28:32;1.50;99.90
13123;DHT22;6627;50.920;12.050;2023-11-22T02:30:59;1.50;99.90
13123;DHT22;6627;50.920;12.050;2023-11-22T02:33:28;1.60;99.90
13123;DHT22;6627;50.920;12.050;2023-11-22T02:35:57;1.50;99.90
13123;DHT22;6627;50.920;12.050;2023-11-22T02:38:25;1.50;99.90
13123;DHT22;6627;50.920;12.050;2023-11-22T02:40:55;1.40;99.90
13123;DHT22;6627;50.920;12.050;2023-11-22T02:45:51;1.50;99.90
13123;DHT22;6627;50.920;12.050;2023-11-22T02:48:24;1.50;99.90
13123;DHT22;6627;50.920;12.050;2023-11-22T02:50:51;1.50;99.90
13123;DHT22;6627;50.920;12.050;2023-11-22T02:53:20;1.50;99.90
13123;DHT22;6627;50.920;12.050;2023-11-22T02:55:47;1.50;99.90
13123;DHT22;6627;50.920;12.050;2023-11-22T02:58:16;1.50;99.90
13123;DHT22;6627;50.920;12.050;2023-11-22T03:00:43;1.50;99.90
13123;DHT22;6627;50.920;12.050;2023-11-22T03:03:10;1.50;99.90
13123;DHT22;6627;50.920;12.050;2023-11-22T03:05:38;1.40;99.90
13123;DHT22;6627;50.920;12.050;2023-11-22T03:08:06;1.40;99.90
13123;DHT22;6627;50.920;12.050;2023-11-22T03:10:33;1.40;99.90
13123;DHT22;6627;50.920;12.050;2023-11-22T03:13:01;1.40;99.90
13123;DHT22;6627;50.920;12.050;2023-11-22T03:15:31;1.40;99.90
13123;DHT22;6627;50.920;12.050;2023-11-22T03:17:58;1.40;99.90
13123;DHT22;6627;50.920;12.050;2023-11-22T03:20:27;1.40;99.90
13123;DHT22;6627;50.920;12.050;2023-11-22T03:22:54;1.40;99.90
13123;DHT22;6627;50.920;12.050;2023-11-22T03:25:21;1.40;99.90
13123;DHT22;6627;50.920;12.050;2023-11-22T03:27:49;1.40;99.90
13123;DHT22;6627;50.920;12.050;2023-11-22T03:30:17;1.40;99.90
13123;DHT22;6627;50.920;12.050;2023-11-22T03:32:54;1.40;99.90
13123;DHT22;6627;50.920;12.050;2023-11-22T03:35:21;1.50;99.90
13123;DHT22;6627;50.920;12.050;2023-11-22T03:37:49;1.50;99.90
13123;DHT22;6627;50.920;12.050;2023-11-22T03:40:16;1.40;99.90
13123;DHT22;6627;50.920;12.050;2023-11-22T03:42:44;1.40;99.90
13123;DHT22;6627;50.920;12.050;2023-11-22T03:45:12;1.40;99.90
13123;DHT22;6627;50.920;12.050;2023-11-22T03:50:09;1.30;99.90
13123;DHT22;6627;50.920;12.050;2023-11-22T03:52:36;1.40;99.90
13123;DHT22;6627;50.920;12.050;2023-11-22T03:55:04;1.30;99.90
13123;DHT22;6627;50.920;12.050;2023-11-22T03:57:32;1.30;99.90
13123;DHT22;6627;50.920;12.050;2023-11-22T03:59:59;1.30;99.90
13123;DHT22;6627;50.920;12.050;2023-11-22T04:02:26;1.30;99.90
13123;DHT22;6627;50.920;12.050;2023-11-22T04:04:55;1.20;99.90
13123;DHT22;6627;50.920;12.050;2023-11-22T04:07:24;1.30;99.90
13123;DHT22;6627;50.920;12.050;2023-11-22T04:09:51;1.30;99.90
13123;DHT22;6627;50.920;12.050;2023-11-22T04:12:20;1.30;99.90
13123;DHT22;6627;50.920;12.050;2023-11-22T04:14:48;1.30;99.90
13123;DHT22;6627;50.920;12.050;2023-11-22T04:17:17;1.30;99.90
13123;DHT22;6627;50.920;12.050;2023-11-22T04:19:45;1.30;99.90
13123;DHT22;6627;50.920;12.050;2023-11-22T04:22:12;1.30;99.90
13123;DHT22;6627;50.920;12.050;2023-11-22T04:24:40;1.30;99.90
13123;DHT22;6627;50.920;12.050;2023-11-22T04:27:08;1.30;99.90
13123;DHT22;6627;50.920;12.050;2023-11-22T04:29:35;1.30;99.90
13123;DHT22;6627;50.920;12.050;2023-11-22T04:32:03;1.20;99.90
13123;DHT22;6627;50.920;12.050;2023-11-22T04:34:32;1.20;99.90
13123;DHT22;6627;50.920;12.050;2023-11-22T04:37:01;1.20;99.90
13123;DHT22;6627;50.920;12.050;2023-11-22T04:39:28;1.10;99.90
13123;DHT22;6627;50.920;12.050;2023-11-22T04:41:57;1.00;99.90
13123;DHT22;6627;50.920;12.050;2023-11-22T04:44:26;0.90;99.90
13123;DHT22;6627;50.920;12.050;2023-11-22T04:46:53;0.90;99.90
13123;DHT22;6627;50.920;12.050;2023-11-22T04:49:21;0.90;99.90
13123;DHT22;6627;50.920;12.050;2023-11-22T04:51:49;0.80;99.90
13123;DHT22;6627;50.920;12.050;2023-11-22T04:54:16;0.70;99.90
13123;DHT22;6627;50.920;12.050;2023-11-22T04:56:44;0.60;99.90
13123;DHT22;6627;50.920;12.050;2023-11-22T04:59:13;0.50;99.90
13123;DHT22;6627;50.920;12.050;2023-11-22T05:04:09;0.50;99.90
13123;DHT22;6627;50.920;12.050;2023-11-22T05:06:37;0.50;99.90
13123;DHT22;6627;50.920;12.050;2023-11-22T05:09:04;0.50;99.90
13123;DHT22;6627;50.920;12.050;2023-11-22T05:11:32;0.50;99.90
13123;DHT22;6627;50.920;12.050;2023-11-22T05:14:00;0.40;99.90
13123;DHT22;6627;50.920;12.050;2023-11-22T05:16:31;0.40;99.90
13123;DHT22;6627;50.920;12.050;2023-11-22T05:18:59;0.40;99.90
13123;DHT22;6627;50.920;12.050;2023-11-22T05:21:26;0.40;99.90
13123;DHT22;6627;50.920;12.050;2023-11-22T05:23:54;0.40;99.90
13123;DHT22;6627;50.920;12.050;2023-11-22T05:26:21;0.50;99.90
13123;DHT22;6627;50.920;12.050;2023-11-22T05:28:49;0.40;99.90
13123;DHT22;6627;50.920;12.050;2023-11-22T05:31:17;0.50;99.90
13123;DHT22;6627;50.920;12.050;2023-11-22T05:33:47;0.50;99.90
13123;DHT22;6627;50.920;12.050;2023-11-22T05:36:14;0.50;99.90
13123;DHT22;6627;50.920;12.050;2023-11-22T05:38:43;0.50;99.90
13123;DHT22;6627;50.920;12.050;2023-11-22T05:41:10;0.40;99.90
13123;DHT22;6627;50.920;12.050;2023-11-22T05:43:37;0.40;99.90
13123;DHT22;6627;50.920;12.050;2023-11-22T05:46:05;0.40;99.90
13123;DHT22;6627;50.920;12.050;2023-11-22T05:48:32;0.40;99.90
13123;DHT22;6627;50.920;12.050;2023-11-22T05:51:01;0.40;99.90
13123;DHT22;6627;50.920;12.050;2023-11-22T05:53:28;0.40;99.90
13123;DHT22;6627;50.920;12.050;2023-11-22T05:56:03;0.40;99.90
13123;DHT22;6627;50.920;12.050;2023-11-22T05:58:50;0.40;99.90
13123;DHT22;6627;50.920;12.050;2023-11-22T06:01:18;0.40;99.90
13123;DHT22;6627;50.920;12.050;2023-11-22T06:03:46;0.40;99.90
13123;DHT22;6627;50.920;12.050;2023-11-22T06:06:16;0.40;99.90
13123;DHT22;6627;50.920;12.050;2023-11-22T06:08:44;0.40;99.90
13123;DHT22;6627;50.920;12.050;2023-11-22T06:11:12;0.30;99.90
13123;DHT22;6627;50.920;12.050;2023-11-22T06:13:41;0.40;99.90
13123;DHT22;6627;50.920;12.050;2023-11-22T06:16:09;0.40;99.90
13123;DHT22;6627;50.920;12.050;2023-11-22T06:18:36;0.30;99.90
13123;DHT22;6627;50.920;12.050;2023-11-22T06:21:06;0.40;99.90
13123;DHT22;6627;50.920;12.050;2023-11-22T06:23:35;0.40;99.90
13123;DHT22;6627;50.920;12.050;2023-11-22T06:26:03;0.30;99.90
13123;DHT22;6627;50.920;12.050;2023-11-22T06:28:30;0.30;99.90
13123;DHT22;6627;50.920;12.050;2023-11-22T06:30:58;0.20;99.90
13123;DHT22;6627;50.920;12.050;2023-11-22T06:33:25;0.10;99.90
13123;DHT22;6627;50.920;12.050;2023-11-22T06:35:53;0.10;99.90
13123;DHT22;6627;50.920;12.050;2023-11-22T06:38:21;0.10;99.90
13123;DHT22;6627;50.920;12.050;2023-11-22T06:40:50;0.10;99.90
13123;DHT22;6627;50.920;12.050;2023-11-22T06:43:17;0.10;99.90
13123;DHT22;6627;50.920;12.050;2023-11-22T06:45:44;0.10;99.90
13123;DHT22;6627;50.920;12.050;2023-11-22T06:48:12;0.10;99.90
13123;DHT22;6627;50.920;12.050;2023-11-22T06:50:39;0.10;99.90
13123;DHT22;6627;50.920;12.050;2023-11-22T06:53:08;0.20;99.90
13123;DHT22;6627;50.920;12.050;2023-11-22T06:55:38;0.10;99.90
13123;DHT22;6627;50.920;12.050;2023-11-22T06:58:07;0.20;99.90
13123;DHT22;6627;50.920;12.050;2023-11-22T07:00:35;0.20;99.90
13123;DHT22;6627;50.920;12.050;2023-11-22T07:03:02;0.20;99.90
13123;DHT22;6627;50.920;12.050;2023-11-22T07:05:29;0.30;99.90
13123;DHT22;6627;50.920;12.050;2023-11-22T07:07:57;0.10;99.90
13123;DHT22;6627;50.920;12.050;2023-11-22T07:10:25;0.00;99.90
13123;DHT22;6627;50.920;12.050;2023-11-22T07:12:56;0.10;99.90
13123;DHT22;6627;50.920;12.050;2023-11-22T07:15:29;0.20;99.90
13123;DHT22;6627;50.920;12.050;2023-11-22T07:17:56;0.20;99.90
13123;DHT22;6627;50.920;12.050;2023-11-22T07:20:24;0.30;99.90
13123;DHT22;6627;50.920;12.050;2023-11-22T07:22:53;0.30;99.90
13123;DHT22;6627;50.920;12.050;2023-11-22T07:25:25;0.30;99.90
13123;DHT22;6627;50.920;12.050;2023-11-22T07:27:54;0.30;99.90
13123;DHT22;6627;50.920;12.050;2023-11-22T07:30:22;0.30;99.90
13123;DHT22;6627;50.920;12.050;2023-11-22T07:32:51;0.30;99.90
13123;DHT22;6627;50.920;12.050;2023-11-22T07:35:19;0.30;99.90
13123;DHT22;6627;50.920;12.050;2023-11-22T07:37:47;0.30;99.90
13123;DHT22;6627;50.920;12.050;2023-11-22T07:40:16;0.30;99.90
13123;DHT22;6627;50.920;12.050;2023-11-22T07:42:45;0.30;99.90
13123;DHT22;6627;50.920;12.050;2023-11-22T07:45:12;0.40;99.90
13123;DHT22;6627;50.920;12.050;2023-11-22T07:47:39;0.50;99.90
13123;DHT22;6627;50.920;12.050;2023-11-22T07:50:09;0.50;99.90
13123;DHT22;6627;50.920;12.050;2023-11-22T07:52:37;0.40;99.90
13123;DHT22;6627;50.920;12.050;2023-11-22T07:55:07;0.50;99.90
13123;DHT22;6627;50.920;12.050;2023-11-22T07:57:36;0.50;99.90
13123;DHT22;6627;50.920;12.050;2023-11-22T08:00:05;0.50;99.90
13123;DHT22;6627;50.920;12.050;2023-11-22T08:02:34;0.50;99.90
13123;DHT22;6627;50.920;12.050;2023-11-22T08:05:05;0.60;99.90
13123;DHT22;6627;50.920;12.050;2023-11-22T08:07:36;0.50;99.90
13123;DHT22;6627;50.920;12.050;2023-11-22T08:10:07;0.50;99.90
13123;DHT22;6627;50.920;12.050;2023-11-22T08:12:35;0.50;99.90
13123;DHT22;6627;50.920;12.050;2023-11-22T08:15:05;0.50;99.90
13123;DHT22;6627;50.920;12.050;2023-11-22T08:17:35;0.40;99.90
13123;DHT22;6627;50.920;12.050;2023-11-22T08:20:04;0.40;99.90
13123;DHT22;6627;50.920;12.050;2023-11-22T08:22:33;0.40;99.90
13123;DHT22;6627;50.920;12.050;2023-11-22T08:25:03;0.40;99.90
13123;DHT22;6627;50.920;12.050;2023-11-22T08:27:31;0.40;99.90
13123;DHT22;6627;50.920;12.050;2023-11-22T08:29:58;0.40;99.90
13123;DHT22;6627;50.920;12.050;2023-11-22T08:32:31;0.50;99.90
13123;DHT22;6627;50.920;12.050;2023-11-22T08:34:58;0.40;99.90
13123;DHT22;6627;50.920;12.050;2023-11-22T08:37:27;0.20;99.90
13123;DHT22;6627;50.920;12.050;2023-11-22T08:39:54;0.30;99.90
13123;DHT22;6627;50.920;12.050;2023-11-22T08:42:23;0.40;99.90
13123;DHT22;6627;50.920;12.050;2023-11-22T08:44:50;0.30;99.90
13123;DHT22;6627;50.920;12.050;2023-11-22T08:47:18;0.30;99.90
13123;DHT22;6627;50.920;12.050;2023-11-22T08:49:45;0.30;99.90
13123;DHT22;6627;50.920;12.050;2023-11-22T08:52:14;0.30;99.90
13123;DHT22;6627;50.920;12.050;2023-11-22T08:54:41;0.40;99.90
13123;DHT22;6627;50.920;12.050;2023-11-22T08:57:08;0.40;99.90
13123;DHT22;6627;50.920;12.050;2023-11-22T08:59:38;0.30;99.90
13123;DHT22;6627;50.920;12.050;2023-11-22T09:02:05;0.40;99.90
13123;DHT22;6627;50.920;12.050;2023-11-22T09:04:34;0.40;99.90
13123;DHT22;6627;50.920;12.050;2023-11-22T09:07:03;0.40;99.90
13123;DHT22;6627;50.920;12.050;2023-11-22T09:09:32;0.40;99.90
13123;DHT22;6627;50.920;12.050;2023-11-22T09:12:01;0.30;99.90
13123;DHT22;6627;50.920;12.050;2023-11-22T09:14:28;0.40;99.90
13123;DHT22;6627;50.920;12.050;2023-11-22T09:16:56;0.40;99.90
13123;DHT22;6627;50.920;12.050;2023-11-22T09:19:24;0.50;99.90
13123;DHT22;6627;50.920;12.050;2023-11-22T09:21:51;0.60;99.90
13123;DHT22;6627;50.920;12.050;2023-11-22T09:24:18;0.70;99.90
13123;DHT22;6627;50.920;12.050;2023-11-22T09:26:46;0.70;99.90
13123;DHT22;6627;50.920;12.050;2023-11-22T09:29:14;0.70;99.90
13123;DHT22;6627;50.920;12.050;2023-11-22T09:31:41;0.70;99.90
13123;DHT22;6627;50.920;12.050;2023-11-22T09:34:10;0.70;99.90
13123;DHT22;6627;50.920;12.050;2023-11-22T09:36:37;0.50;99.90
13123;DHT22;6627;50.920;12.050;2023-11-22T09:39:05;0.50;99.90
13123;DHT22;6627;50.920;12.050;2023-11-22T09:41:34;0.60;99.90
13123;DHT22;6627;50.920;12.050;2023-11-22T09:44:02;0.60;99.90
13123;DHT22;6627;50.920;12.050;2023-11-22T09:49:04;0.50;99.90
13123;DHT22;6627;50.920;12.050;2023-11-22T09:51:41;0.60;99.90
13123;DHT22;6627;50.920;12.050;2023-11-22T09:54:10;0.70;99.90
13123;DHT22;6627;50.920;12.050;2023-11-22T09:56:40;0.70;99.90
13123;DHT22;6627;50.920;12.050;2023-11-22T09:59:18;0.70;99.90
13123;DHT22;6627;50.920;12.050;2023-11-22T10:01:49;0.70;99.90
13123;DHT22;6627;50.920;12.050;2023-11-22T10:04:18;0.70;99.90
13123;DHT22;6627;50.920;12.050;2023-11-22T10:06:47;0.70;99.90
13123;DHT22;6627;50.920;12.050;2023-11-22T10:09:16;0.60;99.90
13123;DHT22;6627;50.920;12.050;2023-11-22T10:11:43;0.60;99.90
13123;DHT22;6627;50.920;12.050;2023-11-22T10:14:22;0.80;99.90
13123;DHT22;6627;50.920;12.050;2023-11-22T10:16:58;0.80;99.90
13123;DHT22;6627;50.920;12.050;2023-11-22T10:19:26;0.80;99.90
13123;DHT22;6627;50.920;12.050;2023-11-22T10:22:08;0.90;99.90
13123;DHT22;6627;50.920;12.050;2023-11-22T10:24:36;0.70;99.90
13123;DHT22;6627;50.920;12.050;2023-11-22T10:27:04;0.60;99.90
13123;DHT22;6627;50.920;12.050;2023-11-22T10:29:31;0.70;99.90
13123;DHT22;6627;50.920;12.050;2023-11-22T10:31:59;0.70;99.90
13123;DHT22;6627;50.920;12.050;2023-11-22T10:34:29;0.70;99.90
13123;DHT22;6627;50.920;12.050;2023-11-22T10:36:56;0.80;99.90
13123;DHT22;6627;50.920;12.050;2023-11-22T10:39:25;0.80;99.90
13123;DHT22;6627;50.920;12.050;2023-11-22T10:41:53;0.70;99.90
13123;DHT22;6627;50.920;12.050;2023-11-22T10:44:22;0.70;99.90
13123;DHT22;6627;50.920;12.050;2023-11-22T10:46:50;0.80;99.90
13123;DHT22;6627;50.920;12.050;2023-11-22T10:49:18;0.70;99.90
13123;DHT22;6627;50.920;12.050;2023-11-22T10:51:51;0.70;99.90
13123;DHT22;6627;50.920;12.050;2023-11-22T10:54:21;0.70;99.90
13123;DHT22;6627;50.920;12.050;2023-11-22T10:56:55;0.80;99.90
13123;DHT22;6627;50.920;12.050;2023-11-22T10:59:28;0.80;99.90
13123;DHT22;6627;50.920;12.050;2023-11-22T11:01:59;0.70;99.90
13123;DHT22;6627;50.920;12.050;2023-11-22T11:04:33;0.70;99.90
13123;DHT22;6627;50.920;12.050;2023-11-22T11:07:03;0.60;99.90
13123;DHT22;6627;50.920;12.050;2023-11-22T11:09:36;0.70;99.90
13123;DHT22;6627;50.920;12.050;2023-11-22T11:12:07;0.80;99.90
13123;DHT22;6627;50.920;12.050;2023-11-22T11:14:35;0.80;99.90
13123;DHT22;6627;50.920;12.050;2023-11-22T11:17:05;0.80;99.90
13123;DHT22;6627;50.920;12.050;2023-11-22T11:19:33;0.90;99.90
13123;DHT22;6627;50.920;12.050;2023-11-22T11:22:01;0.90;99.90
13123;DHT22;6627;50.920;12.050;2023-11-22T11:24:38;0.80;99.90
13123;DHT22;6627;50.920;12.050;2023-11-22T11:27:08;0.80;99.90
13123;DHT22;6627;50.920;12.050;2023-11-22T11:29:37;0.80;99.90
13123;DHT22;6627;50.920;12.050;2023-11-22T11:32:10;0.80;99.90
13123;DHT22;6627;50.920;12.050;2023-11-22T11:34:47;0.70;99.90
13123;DHT22;6627;50.920;12.050;2023-11-22T11:37:18;0.70;99.90
13123;DHT22;6627;50.920;12.050;2023-11-22T11:39:46;0.80;99.90
13123;DHT22;6627;50.920;12.050;2023-11-22T11:42:15;0.80;99.90
13123;DHT22;6627;50.920;12.050;2023-11-22T11:45:04;0.90;99.90
13123;DHT22;6627;50.920;12.050;2023-11-22T11:47:33;0.90;99.90
13123;DHT22;6627;50.920;12.050;2023-11-22T11:50:01;0.90;99.90
13123;DHT22;6627;50.920;12.050;2023-11-22T11:52:48;0.90;99.90
13123;DHT22;6627;50.920;12.050;2023-11-22T11:55:35;0.80;99.90
13123;DHT22;6627;50.920;12.050;2023-11-22T11:58:12;0.70;99.90
13123;DHT22;6627;50.920;12.050;2023-11-22T12:00:40;0.80;99.90
13123;DHT22;6627;50.920;12.050;2023-11-22T12:03:08;0.80;99.90
13123;DHT22;6627;50.920;12.050;2023-11-22T12:05:45;0.90;99.90
13123;DHT22;6627;50.920;12.050;2023-11-22T12:08:20;0.80;99.90
13123;DHT22;6627;50.920;12.050;2023-11-22T12:10:47;0.90;99.90
13123;DHT22;6627;50.920;12.050;2023-11-22T12:13:18;0.80;99.90
13123;DHT22;6627;50.920;12.050;2023-11-22T12:15:46;0.80;99.90
13123;DHT22;6627;50.920;12.050;2023-11-22T12:18:14;0.80;99.90
13123;DHT22;6627;50.920;12.050;2023-11-22T12:20:42;0.80;99.90
13123;DHT22;6627;50.920;12.050;2023-11-22T12:23:21;0.80;99.90
13123;DHT22;6627;50.920;12.050;2023-11-22T12:25:52;0.70;99.90
13123;DHT22;6627;50.920;12.050;2023-11-22T12:28:24;0.70;99.90
13123;DHT22;6627;50.920;12.050;2023-11-22T12:30:53;0.80;99.90
13123;DHT22;6627;50.920;12.050;2023-11-22T12:33:20;0.80;99.90
13123;DHT22;6627;50.920;12.050;2023-11-22T12:35:49;0.80;99.90
13123;DHT22;6627;50.920;12.050;2023-11-22T12:38:16;0.90;99.90
13123;DHT22;6627;50.920;12.050;2023-11-22T12:40:45;0.70;99.90
13123;DHT22;6627;50.920;12.050;2023-11-22T12:43:13;0.80;99.90
13123;DHT22;6627;50.920;12.050;2023-11-22T12:45:43;0.80;99.90
13123;DHT22;6627;50.920;12.050;2023-11-22T12:48:25;0.70;99.90
13123;DHT22;6627;50.920;12.050;2023-11-22T12:50:56;0.70;99.90
13123;DHT22;6627;50.920;12.050;2023-11-22T12:53:25;0.80;99.90
13123;DHT22;6627;50.920;12.050;2023-11-22T12:55:54;0.90;99.90
13123;DHT22;6627;50.920;12.050;2023-11-22T12:58:23;0.70;99.90
13123;DHT22;6627;50.920;12.050;2023-11-22T13:00:54;0.60;99.90
13123;DHT22;6627;50.920;12.050;2023-11-22T13:03:27;0.60;99.90
13123;DHT22;6627;50.920;12.050;2023-11-22T13:05:55;0.70;99.90
13123;DHT22;6627;50.920;12.050;2023-11-22T13:08:22;0.80;99.90
13123;DHT22;6627;50.920;12.050;2023-11-22T13:10:55;0.90;99.90
13123;DHT22;6627;50.920;12.050;2023-11-22T13:13:24;1.00;99.90
13123;DHT22;6627;50.920;12.050;2023-11-22T13:15:54;0.90;99.90
13123;DHT22;6627;50.920;12.050;2023-11-22T13:18:22;1.00;99.90
13123;DHT22;6627;50.920;12.050;2023-11-22T13:20:51;0.90;99.90
13123;DHT22;6627;50.920;12.050;2023-11-22T13:23:18;1.00;99.90
13123;DHT22;6627;50.920;12.050;2023-11-22T13:25:46;1.00;99.90
13123;DHT22;6627;50.920;12.050;2023-11-22T13:28:13;1.00;99.90
13123;DHT22;6627;50.920;12.050;2023-11-22T13:30:40;1.00;99.90
13123;DHT22;6627;50.920;12.050;2023-11-22T13:33:09;1.00;99.90
13123;DHT22;6627;50.920;12.050;2023-11-22T13:35:37;1.00;99.90
13123;DHT22;6627;50.920;12.050;2023-11-22T13:38:05;1.00;99.90
13123;DHT22;6627;50.920;12.050;2023-11-22T13:40:36;1.00;99.90
13123;DHT22;6627;50.920;12.050;2023-11-22T13:43:05;1.00;99.90
13123;DHT22;6627;50.920;12.050;2023-11-22T13:45:35;1.00;99.90
13123;DHT22;6627;50.920;12.050;2023-11-22T13:48:04;1.00;99.90
13123;DHT22;6627;50.920;12.050;2023-11-22T13:50:34;1.00;99.90
13123;DHT22;6627;50.920;12.050;2023-11-22T13:53:01;0.90;99.90
13123;DHT22;6627;50.920;12.050;2023-11-22T13:55:30;1.00;99.90
13123;DHT22;6627;50.920;12.050;2023-11-22T13:57:58;1.00;99.90
13123;DHT22;6627;50.920;12.050;2023-11-22T14:00:27;1.00;99.90
13123;DHT22;6627;50.920;12.050;2023-11-22T14:02:59;1.00;99.90
13123;DHT22;6627;50.920;12.050;2023-11-22T14:05:34;1.00;99.90
13123;DHT22;6627;50.920;12.050;2023-11-22T14:08:04;0.90;99.90
13123;DHT22;6627;50.920;12.050;2023-11-22T14:10:33;0.90;99.90
13123;DHT22;6627;50.920;12.050;2023-11-22T14:13:02;1.00;99.90
13123;DHT22;6627;50.920;12.050;2023-11-22T14:15:30;1.00;99.90
13123;DHT22;6627;50.920;12.050;2023-11-22T14:17:58;1.00;99.90
13123;DHT22;6627;50.920;12.050;2023-11-22T14:20:26;1.10;99.90
13123;DHT22;6627;50.920;12.050;2023-11-22T14:22:57;1.00;99.90
13123;DHT22;6627;50.920;12.050;2023-11-22T14:25:24;1.00;99.90
13123;DHT22;6627;50.920;12.050;2023-11-22T14:27:52;1.00;99.90
13123;DHT22;6627;50.920;12.050;2023-11-22T14:30:21;0.90;99.90
13123;DHT22;6627;50.920;12.050;2023-11-22T14:32:50;0.90;99.90
13123;DHT22;6627;50.920;12.050;2023-11-22T14:35:18;0.90;99.90
13123;DHT22;6627;50.920;12.050;2023-11-22T14:37:46;0.90;99.90
13123;DHT22;6627;50.920;12.050;2023-11-22T14:40:17;0.90;99.90
13123;DHT22;6627;50.920;12.050;2023-11-22T14:42:46;1.00;99.90
13123;DHT22;6627;50.920;12.050;2023-11-22T14:45:16;0.90;99.90
13123;DHT22;6627;50.920;12.050;2023-11-22T14:47:46;1.00;99.90
13123;DHT22;6627;50.920;12.050;2023-11-22T14:50:13;1.00;99.90
13123;DHT22;6627;50.920;12.050;2023-11-22T14:52:41;1.00;99.90
13123;DHT22;6627;50.920;12.050;2023-11-22T14:55:10;1.00;99.90
13123;DHT22;6627;50.920;12.050;2023-11-22T14:57:39;1.10;99.90
13123;DHT22;6627;50.920;12.050;2023-11-22T15:00:08;1.10;99.90
13123;DHT22;6627;50.920;12.050;2023-11-22T15:02:39;1.10;99.90
13123;DHT22;6627;50.920;12.050;2023-11-22T15:05:09;1.10;99.90
13123;DHT22;6627;50.920;12.050;2023-11-22T15:07:36;1.10;99.90
13123;DHT22;6627;50.920;12.050;2023-11-22T15:10:07;1.00;99.90
13123;DHT22;6627;50.920;12.050;2023-11-22T15:12:36;1.00;99.90
13123;DHT22;6627;50.920;12.050;2023-11-22T15:15:07;1.00;99.90
13123;DHT22;6627;50.920;12.050;2023-11-22T15:17:35;1.00;99.90
13123;DHT22;6627;50.920;12.050;2023-11-22T15:20:04;1.00;99.90
13123;DHT22;6627;50.920;12.050;2023-11-22T15:22:36;1.00;99.90
13123;DHT22;6627;50.920;12.050;2023-11-22T15:25:05;1.00;99.90
13123;DHT22;6627;50.920;12.050;2023-11-22T15:27:32;1.00;99.90
13123;DHT22;6627;50.920;12.050;2023-11-22T15:29:59;0.90;99.90
13123;DHT22;6627;50.920;12.050;2023-11-22T15:32:29;0.90;99.90
13123;DHT22;6627;50.920;12.050;2023-11-22T15:34:56;0.90;99.90
13123;DHT22;6627;50.920;12.050;2023-11-22T15:37:23;0.90;99.90
13123;DHT22;6627;50.920;12.050;2023-11-22T15:39:51;0.90;99.90
13123;DHT22;6627;50.920;12.050;2023-11-22T15:42:18;0.90;99.90
13123;DHT22;6627;50.920;12.050;2023-11-22T15:44:45;0.90;99.90
13123;DHT22;6627;50.920;12.050;2023-11-22T15:47:12;0.90;99.90
13123;DHT22;6627;50.920;12.050;2023-11-22T15:49:41;0.90;99.90
13123;DHT22;6627;50.920;12.050;2023-11-22T15:52:08;1.00;99.90
13123;DHT22;6627;50.920;12.050;2023-11-22T15:54:36;1.00;99.90
13123;DHT22;6627;50.920;12.050;2023-11-22T15:57:03;1.00;99.90
13123;DHT22;6627;50.920;12.050;2023-11-22T15:59:32;0.90;99.90
13123;DHT22;6627;50.920;12.050;2023-11-22T16:01:59;0.90;99.90
13123;DHT22;6627;50.920;12.050;2023-11-22T16:04:28;0.90;99.90
13123;DHT22;6627;50.920;12.050;2023-11-22T16:06:56;0.90;99.90
13123;DHT22;6627;50.920;12.050;2023-11-22T16:09:24;1.00;99.90
13123;DHT22;6627;50.920;12.050;2023-11-22T16:11:53;1.00;99.90
13123;DHT22;6627;50.920;12.050;2023-11-22T16:14:20;1.00;99.90
13123;DHT22;6627;50.920;12.050;2023-11-22T16:16:47;1.00;99.90
13123;DHT22;6627;50.920;12.050;2023-11-22T16:19:16;1.00;99.90
13123;DHT22;6627;50.920;12.050;2023-11-22T16:21:43;1.00;99.90